<?xml version="1.0" encoding="UTF-8" standalone="no" ?>
<gpx xmlns="http://www.topografix.com/GPX/1/1" xmlns:xsi="http://www.w3.org/2001/XMLSchema-instance" xsi:schemaLocation="http://www.topografix.com/GPX/1/1 http://www.topografix.com/GPX/1/1/gpx.xsd" version="1.1" creator="VisuGPX - https://www.visugpx.com">
  <metadata>
    <name>Cirque d'Omblèze (Drôme)</name>
    <desc><![CDATA[Randonnée peu difficile à partir de Omblèze-Les Arbods]]></desc>
  </metadata>
  <trk>
    <name><![CDATA[Cirque d'Omblèze - PD+]]></name>
    <trkseg>
      <trkpt lat="44.8704" lon="5.22187">
        <ele>719</ele>
        <time>2011-07-16T07:30:00Z</time>
      </trkpt>
      <trkpt lat="44.87066" lon="5.22085">
        <ele>731</ele>
        <time>2011-07-16T07:32:31.29Z</time>
      </trkpt>
      <trkpt lat="44.87077" lon="5.22001">
        <ele>744</ele>
        <time>2011-07-16T07:34:38.32Z</time>
      </trkpt>
      <trkpt lat="44.87127" lon="5.21912">
        <ele>764</ele>
        <time>2011-07-16T07:37:40.17Z</time>
      </trkpt>
      <trkpt lat="44.87181" lon="5.21847">
        <ele>782</ele>
        <time>2011-07-16T07:40:15.82Z</time>
      </trkpt>
      <trkpt lat="44.8721" lon="5.21753">
        <ele>799</ele>
        <time>2011-07-16T07:42:35.09Z</time>
      </trkpt>
      <trkpt lat="44.8726" lon="5.21662">
        <ele>814</ele>
        <time>2011-07-16T07:44:55.04Z</time>
      </trkpt>
      <trkpt lat="44.87332" lon="5.21659">
        <ele>825</ele>
        <time>2011-07-16T07:46:44.80Z</time>
      </trkpt>
      <trkpt lat="44.87393" lon="5.21599">
        <ele>834</ele>
        <time>2011-07-16T07:48:28.79Z</time>
      </trkpt>
      <trkpt lat="44.87431" lon="5.21555">
        <ele>839</ele>
        <time>2011-07-16T07:49:31.85Z</time>
      </trkpt>
      <trkpt lat="44.8751" lon="5.21537">
        <ele>845</ele>
        <time>2011-07-16T07:51:13.82Z</time>
      </trkpt>
      <trkpt lat="44.87576" lon="5.21518">
        <ele>851</ele>
        <time>2011-07-16T07:52:40.85Z</time>
      </trkpt>
      <trkpt lat="44.87608" lon="5.21469">
        <ele>855</ele>
        <time>2011-07-16T07:53:43.67Z</time>
      </trkpt>
      <trkpt lat="44.87682" lon="5.21456">
        <ele>863</ele>
        <time>2011-07-16T07:55:44.05Z</time>
      </trkpt>
      <trkpt lat="44.87803" lon="5.21471">
        <ele>885</ele>
        <time>2011-07-16T07:59:39.82Z</time>
      </trkpt>
      <trkpt lat="44.87875" lon="5.21437">
        <ele>905</ele>
        <time>2011-07-16T08:02:59.26Z</time>
      </trkpt>
      <trkpt lat="44.88047" lon="5.21398">
        <ele>958</ele>
        <time>2011-07-16T08:10:59.33Z</time>
      </trkpt>
      <trkpt lat="44.88089" lon="5.21401">
        <ele>971</ele>
        <time>2011-07-16T08:12:52.30Z</time>
      </trkpt>
      <trkpt lat="44.88166" lon="5.21343">
        <ele>997</ele>
        <time>2011-07-16T08:16:37.92Z</time>
      </trkpt>
      <trkpt lat="44.88245" lon="5.21359">
        <ele>1019</ele>
        <time>2011-07-16T08:20:00.54Z</time>
      </trkpt>
      <trkpt lat="44.88306" lon="5.21393">
        <ele>1038</ele>
        <time>2011-07-16T08:22:53.05Z</time>
      </trkpt>
      <trkpt lat="44.88329" lon="5.21427">
        <ele>1048</ele>
        <time>2011-07-16T08:24:29.84Z</time>
      </trkpt>
      <trkpt lat="44.88338" lon="5.21409">
        <ele>1053</ele>
        <time>2011-07-16T08:25:15.35Z</time>
      </trkpt>
      <trkpt lat="44.88445" lon="5.21419">
        <ele>1088</ele>
        <time>2011-07-16T08:30:44.62Z</time>
      </trkpt>
      <trkpt lat="44.88522" lon="5.21416">
        <ele>1116</ele>
        <time>2011-07-16T08:35:14.09Z</time>
      </trkpt>
      <trkpt lat="44.88585" lon="5.21437">
        <ele>1143</ele>
        <time>2011-07-16T08:39:22.19Z</time>
      </trkpt>
      <trkpt lat="44.8863" lon="5.21461">
        <ele>1164</ele>
        <time>2011-07-16T08:42:44.97Z</time>
      </trkpt>
      <trkpt lat="44.88703" lon="5.21432">
        <ele>1201</ele>
        <time>2011-07-16T08:48:44.71Z</time>
      </trkpt>
      <trkpt lat="44.88788" lon="5.21382">
        <ele>1253</ele>
        <time>2011-07-16T08:56:29.24Z</time>
      </trkpt>
      <trkpt lat="44.88841" lon="5.21333">
        <ele>1288</ele>
        <time>2011-07-16T09:01:38.53Z</time>
      </trkpt>
      <trkpt lat="44.88895" lon="5.2132">
        <ele>1317</ele>
        <time>2011-07-16T09:05:33.10Z</time>
      </trkpt>
      <trkpt lat="44.8895" lon="5.21286">
        <ele>1343</ele>
        <time>2011-07-16T09:08:55.34Z</time>
      </trkpt>
      <trkpt lat="44.89013" lon="5.21273">
        <ele>1363</ele>
        <time>2011-07-16T09:10:55.58Z</time>
      </trkpt>
      <trkpt lat="44.89037" lon="5.2138">
        <ele>1372</ele>
        <time>2011-07-16T09:12:29.21Z</time>
      </trkpt>
      <trkpt lat="44.89072" lon="5.21471">
        <ele>1368</ele>
        <time>2011-07-16T09:13:55.11Z</time>
      </trkpt>
      <trkpt lat="44.89107" lon="5.21552">
        <ele>1359</ele>
        <time>2011-07-16T09:15:19.06Z</time>
      </trkpt>
      <trkpt lat="44.89151" lon="5.21615">
        <ele>1350</ele>
        <time>2011-07-16T09:16:33.28Z</time>
      </trkpt>
      <trkpt lat="44.89217" lon="5.2168">
        <ele>1343</ele>
        <time>2011-07-16T09:18:03.32Z</time>
      </trkpt>
      <trkpt lat="44.89269" lon="5.21727">
        <ele>1344</ele>
        <time>2011-07-16T09:19:20.51Z</time>
      </trkpt>
      <trkpt lat="44.89325" lon="5.21912">
        <ele>1357</ele>
        <time>2011-07-16T09:22:26.89Z</time>
      </trkpt>
      <trkpt lat="44.89359" lon="5.21991">
        <ele>1364</ele>
        <time>2011-07-16T09:23:50.96Z</time>
      </trkpt>
      <trkpt lat="44.89399" lon="5.22074">
        <ele>1369</ele>
        <time>2011-07-16T09:25:14.67Z</time>
      </trkpt>
      <trkpt lat="44.89488" lon="5.22192">
        <ele>1370</ele>
        <time>2011-07-16T09:27:30.90Z</time>
      </trkpt>
      <trkpt lat="44.89602" lon="5.22262">
        <ele>1363</ele>
        <time>2011-07-16T09:29:50.20Z</time>
      </trkpt>
      <trkpt lat="44.89686" lon="5.22395">
        <ele>1354</ele>
        <time>2011-07-16T09:32:14.06Z</time>
      </trkpt>
      <trkpt lat="44.89762" lon="5.22562">
        <ele>1344</ele>
        <time>2011-07-16T09:34:55.63Z</time>
      </trkpt>
      <trkpt lat="44.89803" lon="5.22667">
        <ele>1336</ele>
        <time>2011-07-16T09:36:34.87Z</time>
      </trkpt>
      <trkpt lat="44.89851" lon="5.22802">
        <ele>1326</ele>
        <time>2011-07-16T09:38:40.65Z</time>
      </trkpt>
      <trkpt lat="44.89922" lon="5.22925">
        <ele>1316</ele>
        <time>2011-07-16T09:40:49.51Z</time>
      </trkpt>
      <trkpt lat="44.89904" lon="5.23003">
        <ele>1312</ele>
        <time>2011-07-16T09:41:54.59Z</time>
      </trkpt>
      <trkpt lat="44.89875" lon="5.23113">
        <ele>1308</ele>
        <time>2011-07-16T09:43:26.85Z</time>
      </trkpt>
      <trkpt lat="44.89848" lon="5.23196">
        <ele>1307</ele>
        <time>2011-07-16T09:44:40.89Z</time>
      </trkpt>
      <trkpt lat="44.8981" lon="5.23327">
        <ele>1310</ele>
        <time>2011-07-16T09:46:38.69Z</time>
      </trkpt>
      <trkpt lat="44.89772" lon="5.23379">
        <ele>1312</ele>
        <time>2011-07-16T09:47:44.22Z</time>
      </trkpt>
      <trkpt lat="44.89668" lon="5.23405">
        <ele>1320</ele>
        <time>2011-07-16T09:49:58.64Z</time>
      </trkpt>
      <trkpt lat="44.89535" lon="5.23425">
        <ele>1331</ele>
        <time>2011-07-16T09:52:45.61Z</time>
      </trkpt>
      <trkpt lat="44.89424" lon="5.23445">
        <ele>1337</ele>
        <time>2011-07-16T09:54:56.81Z</time>
      </trkpt>
      <trkpt lat="44.89306" lon="5.23436">
        <ele>1338</ele>
        <time>2011-07-16T09:57:08.68Z</time>
      </trkpt>
      <trkpt lat="44.89173" lon="5.23449">
        <ele>1329</ele>
        <time>2011-07-16T09:59:41.08Z</time>
      </trkpt>
      <trkpt lat="44.89108" lon="5.23436">
        <ele>1322</ele>
        <time>2011-07-16T10:00:58.55Z</time>
      </trkpt>
      <trkpt lat="44.89058" lon="5.23479">
        <ele>1317</ele>
        <time>2011-07-16T10:02:05.58Z</time>
      </trkpt>
      <trkpt lat="44.88938" lon="5.23432">
        <ele>1308</ele>
        <time>2011-07-16T10:04:24.15Z</time>
      </trkpt>
      <trkpt lat="44.88822" lon="5.23475">
        <ele>1306</ele>
        <time>2011-07-16T10:06:37.02Z</time>
      </trkpt>
      <trkpt lat="44.88714" lon="5.23533">
        <ele>1306</ele>
        <time>2011-07-16T10:08:46.41Z</time>
      </trkpt>
      <trkpt lat="44.88617" lon="5.23604">
        <ele>1307</ele>
        <time>2011-07-16T10:10:51.31Z</time>
      </trkpt>
      <trkpt lat="44.88541" lon="5.23692">
        <ele>1309</ele>
        <time>2011-07-16T10:12:44.04Z</time>
      </trkpt>
      <trkpt lat="44.88465" lon="5.2372">
        <ele>1310</ele>
        <time>2011-07-16T10:14:14.35Z</time>
      </trkpt>
      <trkpt lat="44.88389" lon="5.23717">
        <ele>1312</ele>
        <time>2011-07-16T10:15:41.96Z</time>
      </trkpt>
      <trkpt lat="44.88324" lon="5.23752">
        <ele>1313</ele>
        <time>2011-07-16T10:17:02.82Z</time>
      </trkpt>
      <trkpt lat="44.88235" lon="5.23816">
        <ele>1316</ele>
        <time>2011-07-16T10:18:58.38Z</time>
      </trkpt>
      <trkpt lat="44.88165" lon="5.23905">
        <ele>1318</ele>
        <time>2011-07-16T10:20:49.22Z</time>
      </trkpt>
      <trkpt lat="44.88062" lon="5.23931">
        <ele>1322</ele>
        <time>2011-07-16T10:22:52.01Z</time>
      </trkpt>
      <trkpt lat="44.88001" lon="5.23981">
        <ele>1324</ele>
        <time>2011-07-16T10:24:12.97Z</time>
      </trkpt>
      <trkpt lat="44.87817" lon="5.23999">
        <ele>1326</ele>
        <time>2011-07-16T10:27:37.90Z</time>
      </trkpt>
      <trkpt lat="44.87712" lon="5.23995">
        <ele>1321</ele>
        <time>2011-07-16T10:29:36.17Z</time>
      </trkpt>
      <trkpt lat="44.87583" lon="5.24006">
        <ele>1311</ele>
        <time>2011-07-16T10:32:03.70Z</time>
      </trkpt>
      <trkpt lat="44.87484" lon="5.24042">
        <ele>1304</ele>
        <time>2011-07-16T10:33:57.22Z</time>
      </trkpt>
      <trkpt lat="44.87385" lon="5.24105">
        <ele>1300</ele>
        <time>2011-07-16T10:35:57.68Z</time>
      </trkpt>
      <trkpt lat="44.87294" lon="5.24097">
        <ele>1301</ele>
        <time>2011-07-16T10:37:45.60Z</time>
      </trkpt>
      <trkpt lat="44.87186" lon="5.2412">
        <ele>1307</ele>
        <time>2011-07-16T10:40:01.33Z</time>
      </trkpt>
      <trkpt lat="44.87165" lon="5.24141">
        <ele>1310</ele>
        <time>2011-07-16T10:40:37.88Z</time>
      </trkpt>
      <trkpt lat="44.87138" lon="5.24139">
        <ele>1313</ele>
        <time>2011-07-16T10:41:17.47Z</time>
      </trkpt>
      <trkpt lat="44.87062" lon="5.24152">
        <ele>1323</ele>
        <time>2011-07-16T10:43:16.14Z</time>
      </trkpt>
      <trkpt lat="44.86956" lon="5.24146">
        <ele>1339</ele>
        <time>2011-07-16T10:46:00.55Z</time>
      </trkpt>
      <trkpt lat="44.86812" lon="5.24256">
        <ele>1361</ele>
        <time>2011-07-16T10:49:41.10Z</time>
      </trkpt>
      <trkpt lat="44.86708" lon="5.2425">
        <ele>1367</ele>
        <time>2011-07-16T10:51:43.13Z</time>
      </trkpt>
      <trkpt lat="44.86626" lon="5.24308">
        <ele>1367</ele>
        <time>2011-07-16T10:53:25.52Z</time>
      </trkpt>
      <trkpt lat="44.86565" lon="5.24334">
        <ele>1366</ele>
        <time>2011-07-16T10:54:36.49Z</time>
      </trkpt>
      <trkpt lat="44.86511" lon="5.2431">
        <ele>1363</ele>
        <time>2011-07-16T10:55:39.20Z</time>
      </trkpt>
      <trkpt lat="44.86425" lon="5.2437">
        <ele>1358</ele>
        <time>2011-07-16T10:57:27.77Z</time>
      </trkpt>
      <trkpt lat="44.86407" lon="5.24417">
        <ele>1354</ele>
        <time>2011-07-16T10:58:12.13Z</time>
      </trkpt>
      <trkpt lat="44.86389" lon="5.24496">
        <ele>1349</ele>
        <time>2011-07-16T10:59:23.72Z</time>
      </trkpt>
      <trkpt lat="44.8629" lon="5.24608">
        <ele>1330</ele>
        <time>2011-07-16T11:02:23.10Z</time>
      </trkpt>
      <trkpt lat="44.86226" lon="5.24485">
        <ele>1305</ele>
        <time>2011-07-16T11:05:24.03Z</time>
      </trkpt>
      <trkpt lat="44.86183" lon="5.24347">
        <ele>1276</ele>
        <time>2011-07-16T11:08:43.73Z</time>
      </trkpt>
      <trkpt lat="44.86161" lon="5.24235">
        <ele>1250</ele>
        <time>2011-07-16T11:11:30.82Z</time>
      </trkpt>
      <trkpt lat="44.86131" lon="5.24177">
        <ele>1234</ele>
        <time>2011-07-16T11:13:14.65Z</time>
      </trkpt>
      <trkpt lat="44.86082" lon="5.24096">
        <ele>1210</ele>
        <time>2011-07-16T11:15:47.49Z</time>
      </trkpt>
      <trkpt lat="44.86086" lon="5.2407">
        <ele>1205</ele>
        <time>2011-07-16T11:16:25.84Z</time>
      </trkpt>
      <trkpt lat="44.8607" lon="5.24065">
        <ele>1199</ele>
        <time>2011-07-16T11:16:59.16Z</time>
      </trkpt>
      <trkpt lat="44.86091" lon="5.24021">
        <ele>1187</ele>
        <time>2011-07-16T11:18:16.21Z</time>
      </trkpt>
      <trkpt lat="44.86095" lon="5.23958">
        <ele>1173</ele>
        <time>2011-07-16T11:19:44.06Z</time>
      </trkpt>
      <trkpt lat="44.86037" lon="5.24005">
        <ele>1153</ele>
        <time>2011-07-16T11:21:56.95Z</time>
      </trkpt>
      <trkpt lat="44.86003" lon="5.23968">
        <ele>1139</ele>
        <time>2011-07-16T11:23:21.82Z</time>
      </trkpt>
      <trkpt lat="44.85989" lon="5.23914">
        <ele>1127</ele>
        <time>2011-07-16T11:24:41.09Z</time>
      </trkpt>
      <trkpt lat="44.85966" lon="5.23929">
        <ele>1119</ele>
        <time>2011-07-16T11:25:34.22Z</time>
      </trkpt>
      <trkpt lat="44.85949" lon="5.23864">
        <ele>1103</ele>
        <time>2011-07-16T11:27:12.31Z</time>
      </trkpt>
      <trkpt lat="44.85985" lon="5.23827">
        <ele>1090</ele>
        <time>2011-07-16T11:28:40.93Z</time>
      </trkpt>
      <trkpt lat="44.8593" lon="5.2378">
        <ele>1069</ele>
        <time>2011-07-16T11:30:57.46Z</time>
      </trkpt>
      <trkpt lat="44.85994" lon="5.2371">
        <ele>1042</ele>
        <time>2011-07-16T11:33:53.89Z</time>
      </trkpt>
      <trkpt lat="44.86061" lon="5.23642">
        <ele>1014</ele>
        <time>2011-07-16T11:37:00.57Z</time>
      </trkpt>
      <trkpt lat="44.86097" lon="5.23561">
        <ele>989</ele>
        <time>2011-07-16T11:39:43.61Z</time>
      </trkpt>
      <trkpt lat="44.861" lon="5.23506">
        <ele>974</ele>
        <time>2011-07-16T11:41:16.89Z</time>
      </trkpt>
      <trkpt lat="44.86133" lon="5.23493">
        <ele>962</ele>
        <time>2011-07-16T11:42:35.69Z</time>
      </trkpt>
      <trkpt lat="44.86109" lon="5.2342">
        <ele>941</ele>
        <time>2011-07-16T11:44:49.72Z</time>
      </trkpt>
      <trkpt lat="44.86125" lon="5.23412">
        <ele>934</ele>
        <time>2011-07-16T11:45:29.97Z</time>
      </trkpt>
      <trkpt lat="44.86079" lon="5.23373">
        <ele>915</ele>
        <time>2011-07-16T11:47:32.86Z</time>
      </trkpt>
      <trkpt lat="44.86019" lon="5.23368">
        <ele>894</ele>
        <time>2011-07-16T11:49:47.90Z</time>
      </trkpt>
      <trkpt lat="44.85983" lon="5.23378">
        <ele>881</ele>
        <time>2011-07-16T11:51:03.52Z</time>
      </trkpt>
      <trkpt lat="44.85895" lon="5.23271">
        <ele>845</ele>
        <time>2011-07-16T11:54:41.12Z</time>
      </trkpt>
      <trkpt lat="44.8584" lon="5.23172">
        <ele>821</ele>
        <time>2011-07-16T11:57:10.49Z</time>
      </trkpt>
      <trkpt lat="44.85782" lon="5.23057">
        <ele>798</ele>
        <time>2011-07-16T11:59:41.90Z</time>
      </trkpt>
      <trkpt lat="44.85691" lon="5.22954">
        <ele>775</ele>
        <time>2011-07-16T12:02:23.55Z</time>
      </trkpt>
      <trkpt lat="44.85629" lon="5.22892">
        <ele>763</ele>
        <time>2011-07-16T12:04:01.83Z</time>
      </trkpt>
      <trkpt lat="44.85591" lon="5.22839">
        <ele>755</ele>
        <time>2011-07-16T12:05:08.04Z</time>
      </trkpt>
      <trkpt lat="44.8553" lon="5.22748">
        <ele>742</ele>
        <time>2011-07-16T12:06:58.97Z</time>
      </trkpt>
      <trkpt lat="44.85488" lon="5.22654">
        <ele>731</ele>
        <time>2011-07-16T12:08:35.92Z</time>
      </trkpt>
      <trkpt lat="44.8547" lon="5.22594">
        <ele>725</ele>
        <time>2011-07-16T12:09:31.69Z</time>
      </trkpt>
      <trkpt lat="44.85447" lon="5.2255">
        <ele>721</ele>
        <time>2011-07-16T12:10:18.23Z</time>
      </trkpt>
      <trkpt lat="44.85399" lon="5.22466">
        <ele>713</ele>
        <time>2011-07-16T12:11:48.09Z</time>
      </trkpt>
      <trkpt lat="44.85363" lon="5.22419">
        <ele>709</ele>
        <time>2011-07-16T12:12:43.97Z</time>
      </trkpt>
      <trkpt lat="44.85334" lon="5.22325">
        <ele>704</ele>
        <time>2011-07-16T12:14:05.08Z</time>
      </trkpt>
      <trkpt lat="44.85397" lon="5.22351">
        <ele>701</ele>
        <time>2011-07-16T12:15:17.88Z</time>
      </trkpt>
      <trkpt lat="44.85496" lon="5.22364">
        <ele>698</ele>
        <time>2011-07-16T12:17:08.26Z</time>
      </trkpt>
      <trkpt lat="44.85528" lon="5.22357">
        <ele>697</ele>
        <time>2011-07-16T12:17:44.68Z</time>
      </trkpt>
      <trkpt lat="44.85503" lon="5.22299">
        <ele>696</ele>
        <time>2011-07-16T12:18:38.07Z</time>
      </trkpt>
      <trkpt lat="44.85521" lon="5.22224">
        <ele>695</ele>
        <time>2011-07-16T12:19:41.09Z</time>
      </trkpt>
      <trkpt lat="44.85526" lon="5.22124">
        <ele>693</ele>
        <time>2011-07-16T12:20:59.73Z</time>
      </trkpt>
      <trkpt lat="44.85558" lon="5.22124">
        <ele>693</ele>
        <time>2011-07-16T12:21:35.62Z</time>
      </trkpt>
      <trkpt lat="44.85623" lon="5.22158">
        <ele>692</ele>
        <time>2011-07-16T12:22:52.35Z</time>
      </trkpt>
      <trkpt lat="44.85679" lon="5.22122">
        <ele>691</ele>
        <time>2011-07-16T12:24:00.65Z</time>
      </trkpt>
      <trkpt lat="44.85756" lon="5.22127">
        <ele>691</ele>
        <time>2011-07-16T12:25:27.68Z</time>
      </trkpt>
      <trkpt lat="44.85828" lon="5.2213">
        <ele>692</ele>
        <time>2011-07-16T12:26:48.91Z</time>
      </trkpt>
      <trkpt lat="44.85853" lon="5.22153">
        <ele>692</ele>
        <time>2011-07-16T12:27:23.39Z</time>
      </trkpt>
      <trkpt lat="44.85887" lon="5.22127">
        <ele>693</ele>
        <time>2011-07-16T12:28:08.87Z</time>
      </trkpt>
      <trkpt lat="44.86011" lon="5.22169">
        <ele>697</ele>
        <time>2011-07-16T12:30:42.48Z</time>
      </trkpt>
      <trkpt lat="44.86162" lon="5.22171">
        <ele>706</ele>
        <time>2011-07-16T12:33:48.79Z</time>
      </trkpt>
      <trkpt lat="44.8623" lon="5.2219">
        <ele>711</ele>
        <time>2011-07-16T12:35:15.06Z</time>
      </trkpt>
      <trkpt lat="44.86313" lon="5.22192">
        <ele>716</ele>
        <time>2011-07-16T12:36:53.19Z</time>
      </trkpt>
      <trkpt lat="44.86417" lon="5.22192">
        <ele>718</ele>
        <time>2011-07-16T12:38:50.19Z</time>
      </trkpt>
      <trkpt lat="44.86485" lon="5.22179">
        <ele>717</ele>
        <time>2011-07-16T12:40:06.78Z</time>
      </trkpt>
      <trkpt lat="44.86528" lon="5.22156">
        <ele>716</ele>
        <time>2011-07-16T12:40:57.74Z</time>
      </trkpt>
      <trkpt lat="44.8658" lon="5.22161">
        <ele>714</ele>
        <time>2011-07-16T12:41:55.78Z</time>
      </trkpt>
      <trkpt lat="44.86659" lon="5.22195">
        <ele>712</ele>
        <time>2011-07-16T12:43:27.67Z</time>
      </trkpt>
      <trkpt lat="44.86751" lon="5.22213">
        <ele>712</ele>
        <time>2011-07-16T12:45:11.82Z</time>
      </trkpt>
      <trkpt lat="44.86794" lon="5.22187">
        <ele>713</ele>
        <time>2011-07-16T12:46:07Z</time>
      </trkpt>
      <trkpt lat="44.86869" lon="5.22166">
        <ele>716</ele>
        <time>2011-07-16T12:47:38.31Z</time>
      </trkpt>
      <trkpt lat="44.86925" lon="5.22161">
        <ele>718</ele>
        <time>2011-07-16T12:48:43.66Z</time>
      </trkpt>
      <trkpt lat="44.8697" lon="5.22169">
        <ele>719</ele>
        <time>2011-07-16T12:49:35.47Z</time>
      </trkpt>
      <trkpt lat="44.87038" lon="5.222">
        <ele>720</ele>
        <time>2011-07-16T12:50:57.64Z</time>
      </trkpt>
    </trkseg>
  </trk>
</gpx>